createdAt,value
2018-04-07T00:00:38.308Z,99590.45
2018-04-07T00:03:06.696Z,99588.60
2018-04-07T00:05:34.468Z,99583.53
2018-04-07T00:08:02.232Z,99587.03
2018-04-07T00:10:29.772Z,99582.52
2018-04-07T00:12:57.364Z,99579.53
2018-04-07T00:15:25.004Z,99577.97
2018-04-07T00:17:52.547Z,99569.09
2018-04-07T00:20:20.428Z,99569.52
2018-04-07T00:22:50.034Z,99567.36
2018-04-07T00:25:17.624Z,99566.70
2018-04-07T00:27:45.188Z,99572.19
2018-04-07T00:30:13.168Z,99572.35
2018-04-07T00:32:40.721Z,99572.73
2018-04-07T00:35:08.280Z,99568.83
2018-04-07T00:37:35.864Z,99575.45
2018-04-07T00:40:03.472Z,99571.36
2018-04-07T00:42:31.049Z,99566.48
2018-04-07T00:44:58.651Z,99567.16
2018-04-07T00:47:26.558Z,99577.78
2018-04-07T00:49:54.547Z,99574.11
2018-04-07T00:52:22.228Z,99575.38
2018-04-07T00:54:49.767Z,99581.45
2018-04-07T00:57:18.240Z,99580.13
2018-04-07T00:59:45.781Z,99577.91
2018-04-07T01:02:13.702Z,99581.87
2018-04-07T01:04:42.480Z,99580.02
2018-04-07T01:07:10.024Z,99586.45
2018-04-07T01:09:37.869Z,99590.48
2018-04-07T01:12:05.505Z,99592.45
2018-04-07T01:14:33.048Z,99592.39
2018-04-07T01:17:01.019Z,99597.20
2018-04-07T01:19:28.633Z,99590.55
2018-04-07T01:21:56.217Z,99592.28
2018-04-07T01:24:23.812Z,99587.47
2018-04-07T01:26:51.758Z,99587.23
2018-04-07T01:29:19.325Z,99595.93
2018-04-07T01:31:47.061Z,99600.59
2018-04-07T01:34:14.615Z,99607.83
2018-04-07T01:36:42.185Z,99609.25
2018-04-07T01:39:10.406Z,99612.39
2018-04-07T01:41:38.378Z,99610.23
2018-04-07T01:44:05.964Z,99614.36
2018-04-07T01:46:33.560Z,99614.25
2018-04-07T01:49:01.104Z,99620.87
2018-04-07T01:51:28.917Z,99619.24
2018-04-07T01:53:56.512Z,99623.16
2018-04-07T01:56:24.067Z,99627.91
2018-04-07T01:58:52.652Z,99629.71
2018-04-07T02:01:20.199Z,99638.07
2018-04-07T02:03:48.796Z,99630.54
2018-04-07T02:06:16.340Z,99635.67
2018-04-07T02:08:43.892Z,99627.91
2018-04-07T02:11:12.144Z,99628.81
2018-04-07T02:13:39.702Z,99634.52
2018-04-07T02:16:07.787Z,99624.73
2018-04-07T02:18:35.336Z,99631.95
2018-04-07T02:21:03.058Z,99640.57
2018-04-07T02:23:30.624Z,99641.45
2018-04-07T02:25:58.205Z,99633.78
2018-04-07T02:28:26.011Z,99632.29
2018-04-07T02:30:53.716Z,99635.94
2018-04-07T02:33:21.481Z,99644.47
2018-04-07T02:35:49.069Z,99639.95
2018-04-07T02:38:16.618Z,99638.88
2018-04-07T02:40:44.526Z,99643.20
2018-04-07T02:43:12.905Z,99643.98
2018-04-07T02:45:40.449Z,99646.75
2018-04-07T02:48:08.972Z,99649.45
2018-04-07T02:50:36.946Z,99654.37
2018-04-07T02:53:05.038Z,99654.37
2018-04-07T02:55:32.584Z,99658.75
2018-04-07T02:58:01.117Z,99658.25
2018-04-07T03:00:28.664Z,99666.20
2018-04-07T03:02:56.833Z,99666.83
2018-04-07T03:05:24.436Z,99671.54
2018-04-07T03:07:52.916Z,99672.20
2018-04-07T03:10:20.500Z,99670.69
2018-04-07T03:12:48.765Z,99677.72
2018-04-07T03:15:16.355Z,99681.42
2018-04-07T03:17:43.896Z,99684.06
2018-04-07T03:20:11.492Z,99685.63
2018-04-07T03:22:39.055Z,99680.13
2018-04-07T03:25:06.656Z,99681.28
2018-04-07T03:27:34.540Z,99676.31
2018-04-07T03:30:02.905Z,99672.39
2018-04-07T03:32:30.500Z,99671.25
2018-04-07T03:34:58.433Z,99673.52
2018-04-07T03:37:26.501Z,99677.43
2018-04-07T03:39:54.051Z,99685.06
2018-04-07T03:42:21.660Z,99698.16
2018-04-07T03:44:49.219Z,99698.27
2018-04-07T03:47:17.581Z,99699.34
2018-04-07T03:49:45.702Z,99713.89
2018-04-07T03:52:13.248Z,99714.72
2018-04-07T03:54:41.795Z,99717.38
2018-04-07T03:57:09.925Z,99720.23
2018-04-07T03:59:38.412Z,99727.56
2018-04-07T04:02:06.360Z,99732.57
2018-04-07T04:04:34.473Z,99736.64
2018-04-07T04:07:02.029Z,99737.00
2018-04-07T04:09:30.013Z,99742.39
2018-04-07T04:11:57.561Z,99751.04
2018-04-07T04:14:25.368Z,99751.44
2018-04-07T04:16:53.130Z,99751.23
2018-04-07T04:19:21.035Z,99752.55
2018-04-07T04:21:49.265Z,99761.12
2018-04-07T04:24:16.864Z,99763.49
2018-04-07T04:26:44.646Z,99770.44
2018-04-07T04:29:12.714Z,99777.52
2018-04-07T04:31:40.840Z,99783.23
2018-04-07T04:34:08.427Z,99783.19
2018-04-07T04:36:36.653Z,99793.00
2018-04-07T04:39:04.320Z,99796.02
2018-04-07T04:41:32.560Z,99796.94
2018-04-07T04:44:00.110Z,99803.06
2018-04-07T04:46:27.721Z,99809.05
2018-04-07T04:48:55.656Z,99807.42
2018-04-07T04:51:23.268Z,99807.14
2018-04-07T04:53:50.815Z,99810.09
2018-04-07T04:56:18.408Z,99813.72
2018-04-07T04:58:46.009Z,99817.71
2018-04-07T05:01:13.560Z,99814.83
2018-04-07T05:03:41.683Z,99819.23
2018-04-07T05:06:10.163Z,99816.91
2018-04-07T05:08:37.736Z,99812.98
2018-04-07T05:11:05.823Z,99821.69
2018-04-07T05:13:33.368Z,99816.42
2018-04-07T05:16:01.298Z,99821.91
2018-04-07T05:18:28.877Z,99824.66
2018-04-07T05:20:58.444Z,99823.45
2018-04-07T05:23:26.561Z,99829.42
2018-04-07T05:25:54.669Z,99826.52
2018-04-07T05:28:23.280Z,99829.27
2018-04-07T05:30:50.881Z,99826.94
2018-04-07T05:33:18.766Z,99824.56
2018-04-07T05:35:48.509Z,99827.30
2018-04-07T05:38:16.076Z,99829.94
2018-04-07T05:40:43.668Z,99828.36
2018-04-07T05:43:11.212Z,99831.97
2018-04-07T05:45:38.764Z,99826.30
2018-04-07T05:48:06.315Z,99829.27
2018-04-07T05:50:33.860Z,99833.28
2018-04-07T05:53:01.844Z,99837.96
2018-04-07T05:55:30.088Z,99843.70
2018-04-07T05:57:57.992Z,99846.61
2018-04-07T06:00:25.600Z,99845.47
2018-04-07T06:02:53.384Z,99848.05
2018-04-07T06:05:21.247Z,99849.66
2018-04-07T06:07:49.580Z,99860.55
2018-04-07T06:10:17.499Z,99859.48
2018-04-07T06:12:45.588Z,99860.36
2018-04-07T06:15:13.935Z,99865.54
2018-04-07T06:17:41.805Z,99866.17
2018-04-07T06:20:09.349Z,99874.61
2018-04-07T06:22:36.899Z,99872.87
2018-04-07T06:25:04.848Z,99874.79
2018-04-07T06:27:33.546Z,99879.75
2018-04-07T06:30:01.436Z,99885.88
2018-04-07T06:32:29.023Z,99893.02
2018-04-07T06:34:56.869Z,99896.75
2018-04-07T06:37:25.652Z,99895.55
2018-04-07T06:39:54.343Z,99899.28
2018-04-07T06:42:22.413Z,99896.61
2018-04-07T06:44:50.039Z,99902.78
2018-04-07T06:47:18.656Z,99903.31
2018-04-07T06:49:47.223Z,99899.09
2018-04-07T06:52:16.063Z,99900.06
2018-04-07T06:54:43.660Z,99897.74
2018-04-07T06:57:11.215Z,99908.84
2018-04-07T06:59:39.305Z,99915.41
2018-04-07T07:02:08.346Z,99919.25
2018-04-07T07:04:36.744Z,99921.97
2018-04-07T07:07:04.736Z,99920.06
2018-04-07T07:09:33.100Z,99922.39
2018-04-07T07:12:02.781Z,99933.53
2018-04-07T07:14:30.848Z,99928.61
2018-04-07T07:16:59.731Z,99937.19
2018-04-07T07:19:28.189Z,99933.20
2018-04-07T07:21:56.786Z,99944.51
2018-04-07T07:24:24.359Z,99943.98
2018-04-07T07:26:51.964Z,99946.59
2018-04-07T07:29:20.060Z,99952.90
2018-04-07T07:31:47.665Z,99955.78
2018-04-07T07:34:16.160Z,99957.72
2018-04-07T07:36:44.172Z,99965.78
2018-04-07T07:39:12.248Z,99968.97
2018-04-07T07:41:40.513Z,99970.03
2018-04-07T07:44:08.113Z,99970.23
2018-04-07T07:46:36.869Z,99976.27
2018-04-07T07:49:04.836Z,99973.18
2018-04-07T07:51:33.025Z,99973.66
2018-04-07T07:54:00.620Z,99980.69
2018-04-07T07:56:28.807Z,99977.72
2018-04-07T07:58:56.396Z,99984.23
2018-04-07T08:01:25.240Z,99983.30
2018-04-07T08:03:52.784Z,99975.10
2018-04-07T08:06:20.388Z,99980.31
2018-04-07T08:08:49.443Z,99973.81
2018-04-07T08:11:17.816Z,99980.62
2018-04-07T08:13:46.705Z,99977.03
2018-04-07T08:16:14.255Z,99982.23
2018-04-07T08:18:41.918Z,99986.72
2018-04-07T08:21:09.524Z,99985.46
2018-04-07T08:23:37.460Z,99992.19
2018-04-07T08:26:05.017Z,99994.23
2018-04-07T08:28:32.705Z,99996.48
2018-04-07T08:31:01.052Z,99995.71
2018-04-07T08:33:28.599Z,99995.73
2018-04-07T08:35:56.192Z,99999.59
2018-04-07T08:38:24.302Z,99988.48
2018-04-07T08:40:52.441Z,99992.48
2018-04-07T08:43:22.134Z,99984.41
2018-04-07T08:45:49.736Z,99985.36
2018-04-07T08:48:17.735Z,99987.01
2018-04-07T08:50:45.280Z,99974.92
2018-04-07T08:53:13.572Z,99981.44
2018-04-07T08:55:41.612Z,99979.20
2018-04-07T08:58:09.175Z,99980.36
2018-04-07T09:00:37.470Z,99976.44
2018-04-07T09:03:05.791Z,99977.46
2018-04-07T09:05:33.762Z,99974.35
2018-04-07T09:08:01.617Z,99972.50
2018-04-07T09:10:29.879Z,99962.52
2018-04-07T09:12:57.430Z,99963.95
2018-04-07T09:15:24.983Z,99964.44
2018-04-07T09:17:52.571Z,99965.44
2018-04-07T09:20:20.421Z,99964.80
2018-04-07T09:22:49.005Z,99965.51
2018-04-07T09:25:17.998Z,99966.02
2018-04-07T09:27:46.120Z,99965.55
2018-04-07T09:30:14.288Z,99967.16
2018-04-07T09:32:41.880Z,99961.53
2018-04-07T09:35:11.000Z,99965.30
2018-04-07T09:37:38.541Z,99959.02
2018-04-07T09:40:07.224Z,99956.47
2018-04-07T09:42:34.773Z,99963.02
2018-04-07T09:45:02.756Z,99958.57
2018-04-07T09:47:30.587Z,99956.82
2018-04-07T09:49:58.146Z,99953.31
2018-04-07T09:52:26.733Z,99947.99
2018-04-07T09:54:56.077Z,99954.23
2018-04-07T09:57:23.626Z,99948.88
2018-04-07T09:59:52.223Z,99946.95
2018-04-07T10:02:19.973Z,99948.64
2018-04-07T10:04:48.859Z,99948.09
2018-04-07T10:07:17.724Z,99945.88
2018-04-07T10:09:46.841Z,99948.14
2018-04-07T10:12:14.449Z,99947.15
2018-04-07T10:14:42.009Z,99946.52
2018-04-07T10:17:09.640Z,99943.89
2018-04-07T10:19:37.532Z,99944.36
2018-04-07T10:22:06.043Z,99942.52
2018-04-07T10:24:34.272Z,99939.95
2018-04-07T10:27:04.167Z,99936.49
2018-04-07T10:29:32.267Z,99935.91
2018-04-07T10:31:59.816Z,99930.48
2018-04-07T10:34:27.979Z,99927.28
2018-04-07T10:36:55.520Z,99932.59
2018-04-07T10:39:24.556Z,99924.62
2018-04-07T10:41:52.500Z,99918.16
2018-04-07T10:44:23.325Z,99925.26
2018-04-07T10:46:50.869Z,99920.55
2018-04-07T10:49:19.159Z,99919.08
2018-04-07T10:51:46.704Z,99918.30
2018-04-07T10:54:15.272Z,99921.02
2018-04-07T10:56:44.425Z,99923.47
2018-04-07T10:59:11.980Z,99919.48
2018-04-07T11:01:39.524Z,99916.77
2018-04-07T11:04:07.616Z,99914.19
2018-04-07T11:06:36.548Z,99911.17
2018-04-07T11:09:04.313Z,99906.12
2018-04-07T11:11:33.342Z,99902.61
2018-04-07T11:14:02.953Z,99902.25
2018-04-07T11:16:31.945Z,99901.13
2018-04-07T11:18:59.544Z,99898.98
2018-04-07T11:21:27.228Z,99897.86
2018-04-07T11:23:55.857Z,99900.27
2018-04-07T11:26:24.084Z,99902.92
2018-04-07T11:28:52.692Z,99896.45
2018-04-07T11:31:22.624Z,99895.46
2018-04-07T11:33:50.931Z,99886.74
2018-04-07T11:36:18.550Z,99892.03
2018-04-07T11:38:46.104Z,99889.31
2018-04-07T11:41:16.045Z,99886.31
2018-04-07T11:43:43.593Z,99883.41
2018-04-07T11:46:12.440Z,99885.70
2018-04-07T11:48:39.989Z,99884.86
2018-04-07T11:51:08.843Z,99885.97
2018-04-07T11:53:37.619Z,99888.83
2018-04-07T11:56:06.475Z,99886.72
2018-04-07T11:58:34.910Z,99891.85
2018-04-07T12:01:02.502Z,99884.02
2018-04-07T12:03:30.673Z,99883.53
2018-04-07T12:05:58.481Z,99883.92
2018-04-07T12:08:26.032Z,99880.39
2018-04-07T12:10:55.058Z,99881.66
2018-04-07T12:13:22.900Z,99879.45
2018-04-07T12:15:50.492Z,99872.11
2018-04-07T12:18:18.042Z,99869.91
2018-04-07T12:20:46.448Z,99872.56
2018-04-07T12:23:14.342Z,99872.26
2018-04-07T12:25:43.149Z,99861.83
2018-04-07T12:28:10.699Z,99861.50
2018-04-07T12:30:38.305Z,99858.63
2018-04-07T12:33:05.855Z,99865.39
2018-04-07T12:35:33.451Z,99859.23
2018-04-07T12:38:01.003Z,99852.73
2018-04-07T12:40:28.584Z,99857.52
2018-04-07T12:42:56.627Z,99855.82
2018-04-07T12:45:24.218Z,99856.03
2018-04-07T12:47:52.102Z,99850.58
2018-04-07T12:50:20.572Z,99846.16
2018-04-07T12:52:48.416Z,99845.56
2018-04-07T12:55:16.558Z,99839.46
2018-04-07T12:57:44.149Z,99836.86
2018-04-07T13:00:11.745Z,99839.94
2018-04-07T13:02:39.860Z,99837.77
2018-04-07T13:05:07.408Z,99840.09
2018-04-07T13:07:36.056Z,99833.09
2018-04-07T13:10:03.877Z,99830.00
2018-04-07T13:12:31.543Z,99833.93
2018-04-07T13:14:59.538Z,99837.98
2018-04-07T13:17:27.109Z,99831.70
2018-04-07T13:19:54.992Z,99831.70
2018-04-07T13:22:23.533Z,99828.98
2018-04-07T13:24:51.399Z,99828.62
2018-04-07T13:27:18.996Z,99827.77
2018-04-07T13:29:46.563Z,99830.91
2018-04-07T13:32:14.721Z,99826.02
2018-04-07T13:34:42.990Z,99829.95
2018-04-07T13:37:10.540Z,99825.90
2018-04-07T13:39:38.155Z,99831.70
2018-04-07T13:42:06.114Z,99830.85
2018-04-07T13:44:33.672Z,99836.53
2018-04-07T13:47:01.524Z,99833.09
2018-04-07T13:49:29.070Z,99836.11
2018-04-07T13:51:57.640Z,99832.66
2018-04-07T13:54:25.242Z,99834.47
2018-04-07T13:56:52.789Z,99833.14
2018-04-07T13:59:20.492Z,99837.70
2018-04-07T14:01:48.041Z,99828.46
2018-04-07T14:04:16.567Z,99829.25
2018-04-07T14:06:44.795Z,99836.73
2018-04-07T14:09:12.669Z,99841.56
2018-04-07T14:11:41.280Z,99836.31
2018-04-07T14:14:09.785Z,99836.80
2018-04-07T14:16:37.527Z,99836.01
2018-04-07T14:19:05.083Z,99842.05
2018-04-07T14:21:33.880Z,99836.31
2018-04-07T14:24:01.425Z,99840.78
2018-04-07T14:26:29.509Z,99844.28
2018-04-07T14:28:57.104Z,99833.80
2018-04-07T14:31:24.657Z,99835.95
2018-04-07T14:33:53.622Z,99838.97
2018-04-07T14:36:22.930Z,99840.30
2018-04-07T14:38:50.473Z,99838.48
2018-04-07T14:41:18.110Z,99841.63
2018-04-07T14:43:45.725Z,99839.12
2018-04-07T14:46:14.491Z,99841.33
2018-04-07T14:48:42.541Z,99849.30
2018-04-07T14:51:10.164Z,99840.45
2018-04-07T14:53:37.708Z,99839.12
2018-04-07T14:56:05.260Z,99841.75
2018-04-07T14:58:33.948Z,99844.41
2018-04-07T15:01:02.046Z,99840.36
2018-04-07T15:03:29.596Z,99839.88
2018-04-07T15:05:57.335Z,99842.23
2018-04-07T15:08:25.964Z,99842.68
2018-04-07T15:10:53.724Z,99845.77
2018-04-07T15:13:22.439Z,99847.15
2018-04-07T15:15:51.017Z,99844.01
2018-04-07T15:18:19.063Z,99849.33
2018-04-07T15:20:46.628Z,99848.48
2018-04-07T15:23:14.216Z,99841.83
2018-04-07T15:25:42.521Z,99843.16
2018-04-07T15:28:10.262Z,99843.22
2018-04-07T15:30:38.029Z,99845.52
2018-04-07T15:33:05.581Z,99850.34
2018-04-07T15:35:33.192Z,99846.88
2018-04-07T15:38:01.452Z,99853.06
2018-04-07T15:40:29.352Z,99847.55
2018-04-07T15:42:57.217Z,99851.20
2018-04-07T15:45:26.141Z,99852.58
2018-04-07T15:47:54.212Z,99862.36
2018-04-07T15:50:21.941Z,99853.52
2018-04-07T15:52:50.394Z,99854.48
2018-04-07T15:55:19.420Z,99854.81
2018-04-07T15:57:47.008Z,99852.16
2018-04-07T16:00:15.627Z,99853.21
2018-04-07T16:02:43.695Z,99856.86
2018-04-07T16:05:12.627Z,99857.94
2018-04-07T16:07:40.248Z,99855.31
2018-04-07T16:10:07.876Z,99865.20
2018-04-07T16:12:35.984Z,99868.02
2018-04-07T16:15:03.537Z,99864.99
2018-04-07T16:17:31.151Z,99868.64
2018-04-07T16:19:58.709Z,99869.60
2018-04-07T16:22:26.593Z,99871.98
2018-04-07T16:24:54.140Z,99873.84
2018-04-07T16:27:21.682Z,99870.85
2018-04-07T16:29:50.670Z,99873.20
2018-04-07T16:32:18.239Z,99871.17
2018-04-07T16:34:45.820Z,99866.96
2018-04-07T16:37:13.421Z,99876.09
2018-04-07T16:39:41.385Z,99881.61
2018-04-07T16:42:09.622Z,99879.94
2018-04-07T16:44:37.968Z,99872.59
2018-04-07T16:47:06.333Z,99875.84
2018-04-07T16:49:34.832Z,99876.52
2018-04-07T16:52:02.376Z,99879.32
2018-04-07T16:54:29.996Z,99879.58
2018-04-07T16:56:58.420Z,99886.78
2018-04-07T16:59:25.968Z,99881.30
2018-04-07T17:01:54.273Z,99884.69
2018-04-07T17:04:22.362Z,99893.75
2018-04-07T17:06:49.917Z,99893.03
2018-04-07T17:09:17.522Z,99890.62
2018-04-07T17:11:46.166Z,99901.91
2018-04-07T17:14:13.941Z,99900.13
2018-04-07T17:16:41.898Z,99899.89
2018-04-07T17:19:09.865Z,99899.35
2018-04-07T17:21:37.473Z,99904.45
2018-04-07T17:24:05.112Z,99907.77
2018-04-07T17:26:33.464Z,99920.78
2018-04-07T17:29:01.594Z,99922.67
2018-04-07T17:31:29.968Z,99932.88
2018-04-07T17:33:59.112Z,99930.58
2018-04-07T17:36:26.667Z,99936.38
2018-04-07T17:38:54.480Z,99942.98
2018-04-07T17:41:23.018Z,99947.88
2018-04-07T17:43:51.316Z,99948.13
2018-04-07T17:46:21.188Z,99948.02
2018-04-07T17:48:49.254Z,99954.41
2018-04-07T17:51:16.804Z,99958.37
2018-04-07T17:53:45.711Z,99959.27
2018-04-07T17:56:13.598Z,99968.77
2018-04-07T17:58:41.389Z,99970.34
2018-04-07T18:01:10.234Z,99972.34
2018-04-07T18:03:38.176Z,99978.37
2018-04-07T18:06:06.366Z,99986.97
2018-04-07T18:08:34.924Z,99989.45
2018-04-07T18:11:03.566Z,99985.98
2018-04-07T18:13:31.617Z,99991.69
2018-04-07T18:16:01.857Z,99992.56
2018-04-07T18:18:30.811Z,99990.84
2018-04-07T18:20:59.184Z,100000.12
2018-04-07T18:23:26.761Z,100004.96
2018-04-07T18:25:56.282Z,100007.58
2018-04-07T18:28:25.572Z,100010.28
2018-04-07T18:30:53.353Z,100019.91
2018-04-07T18:33:22.185Z,100023.70
2018-04-07T18:35:50.208Z,100027.16
2018-04-07T18:38:18.222Z,100025.67
2018-04-07T18:40:46.354Z,100027.19
2018-04-07T18:43:15.321Z,100037.87
2018-04-07T18:45:42.893Z,100033.53
2018-04-07T18:48:12.452Z,100039.75
2018-04-07T18:50:40.008Z,100039.47
2018-04-07T18:53:08.571Z,100040.89
2018-04-07T18:55:36.325Z,100044.33
2018-04-07T18:58:04.882Z,100049.37
2018-04-07T19:00:32.965Z,100047.72
2018-04-07T19:03:00.904Z,100047.94
2018-04-07T19:05:29.238Z,100051.16
2018-04-07T19:07:56.924Z,100054.60
2018-04-07T19:10:25.253Z,100049.36
2018-04-07T19:12:54.739Z,100056.58
2018-04-07T19:15:22.785Z,100055.41
2018-04-07T19:17:51.559Z,100058.56
2018-04-07T19:20:19.116Z,100060.02
2018-04-07T19:22:47.751Z,100059.39
2018-04-07T19:25:15.625Z,100065.09
2018-04-07T19:27:43.557Z,100068.44
2018-04-07T19:30:11.405Z,100063.31
2018-04-07T19:32:39.020Z,100065.95
2018-04-07T19:35:06.880Z,100063.22
2018-04-07T19:37:34.956Z,100063.06
2018-04-07T19:40:03.942Z,100068.42
2018-04-07T19:42:32.320Z,100069.45
2018-04-07T19:45:01.760Z,100078.61
2018-04-07T19:47:29.320Z,100072.48
2018-04-07T19:49:57.306Z,100078.20
2018-04-07T19:52:25.532Z,100084.86
2018-04-07T19:54:53.225Z,100082.14
2018-04-07T19:57:21.054Z,100081.99
2018-04-07T19:59:49.396Z,100086.90
2018-04-07T20:02:18.397Z,100090.44
2018-04-07T20:04:46.977Z,100083.73
2018-04-07T20:07:14.537Z,100084.65
2018-04-07T20:09:42.132Z,100087.64
2018-04-07T20:12:10.295Z,100086.80
2018-04-07T20:14:37.916Z,100087.52
2018-04-07T20:17:05.555Z,100083.97
2018-04-07T20:19:33.573Z,100091.13
2018-04-07T20:22:01.514Z,100092.64
2018-04-07T20:24:29.068Z,100089.66
2018-04-07T20:26:58.272Z,100090.55
2018-04-07T20:29:26.858Z,100089.88
2018-04-07T20:31:55.589Z,100092.08
2018-04-07T20:34:23.160Z,100089.06
2018-04-07T20:36:51.453Z,100085.61
2018-04-07T20:39:19.844Z,100090.32
2018-04-07T20:41:49.063Z,100091.19
2018-04-07T20:44:28.347Z,100092.27
2018-04-07T20:46:56.495Z,100100.66
2018-04-07T20:49:24.508Z,100094.34
2018-04-07T20:51:53.085Z,100095.06
2018-04-07T20:54:21.596Z,100103.42
2018-04-07T20:56:50.036Z,100098.47
2018-04-07T20:59:17.664Z,100105.13
2018-04-07T21:01:47.591Z,100107.75
2018-04-07T21:04:15.728Z,100102.16
2018-04-07T21:06:43.972Z,100101.73
2018-04-07T21:09:11.592Z,100101.56
2018-04-07T21:11:39.478Z,100102.50
2018-04-07T21:14:08.149Z,100108.28
2018-04-07T21:16:36.758Z,100113.47
2018-04-07T21:19:04.808Z,100111.42
2018-04-07T21:21:32.364Z,100116.48
2018-04-07T21:24:00.193Z,100124.86
2018-04-07T21:26:28.536Z,100126.17
2018-04-07T21:28:56.097Z,100125.66
2018-04-07T21:31:23.657Z,100131.56
2018-04-07T21:33:51.644Z,100132.26
2018-04-07T21:36:19.208Z,100137.05
2018-04-07T21:38:47.323Z,100140.20
2018-04-07T21:41:15.116Z,100141.64
2018-04-07T21:43:42.858Z,100141.20
2018-04-07T21:46:10.424Z,100138.61
2018-04-07T21:48:39.437Z,100138.18
2018-04-07T21:51:08.354Z,100136.02
2018-04-07T21:53:35.984Z,100134.80
2018-04-07T21:56:03.564Z,100130.48
2018-04-07T21:58:31.775Z,100129.59
2018-04-07T22:00:59.608Z,100129.13
2018-04-07T22:03:27.232Z,100135.94
2018-04-07T22:05:55.488Z,100130.83
2018-04-07T22:08:23.380Z,100139.37
2018-04-07T22:10:51.525Z,100128.05
2018-04-07T22:13:19.484Z,100123.78
2018-04-07T22:15:47.704Z,100121.97
2018-04-07T22:18:15.268Z,100123.94
2018-04-07T22:20:42.855Z,100128.05
2018-04-07T22:23:10.473Z,100120.55
2018-04-07T22:25:38.056Z,100123.31
2018-04-07T22:28:05.689Z,100127.27
2018-04-07T22:30:34.048Z,100129.50
2018-04-07T22:33:01.630Z,100127.97
2018-04-07T22:35:29.280Z,100129.84
2018-04-07T22:37:57.033Z,100125.92
2018-04-07T22:40:24.616Z,100126.75
2018-04-07T22:42:52.560Z,100134.57
2018-04-07T22:45:20.181Z,100130.05
2018-04-07T22:47:47.991Z,100125.05
2018-04-07T22:50:16.384Z,100120.61
2018-04-07T22:52:44.295Z,100117.20
2018-04-07T22:55:11.896Z,100116.58
2018-04-07T22:57:39.451Z,100111.67
2018-04-07T23:00:07.098Z,100115.58
2018-04-07T23:02:35.608Z,100114.86
2018-04-07T23:05:03.509Z,100111.03
2018-04-07T23:07:31.590Z,100109.84
2018-04-07T23:09:59.705Z,100114.13
2018-04-07T23:12:27.273Z,100112.02
2018-04-07T23:14:54.828Z,100112.22
2018-04-07T23:17:22.452Z,100111.30
2018-04-07T23:19:50.293Z,100106.70
2018-04-07T23:22:18.127Z,100108.96
2018-04-07T23:24:45.736Z,100104.87
2018-04-07T23:27:13.336Z,100098.78
2018-04-07T23:29:41.328Z,100109.39
2018-04-07T23:32:09.371Z,100106.83
2018-04-07T23:34:37.355Z,100103.81
2018-04-07T23:37:04.968Z,100107.82
2018-04-07T23:39:32.572Z,100104.20
2018-04-07T23:42:00.168Z,100102.55
2018-04-07T23:44:27.724Z,100094.77
2018-04-07T23:46:56.132Z,100105.44
2018-04-07T23:49:23.684Z,100107.61
2018-04-07T23:51:52.063Z,100102.25
2018-04-07T23:54:20.347Z,100102.66
2018-04-07T23:56:47.952Z,100097.75
2018-04-07T23:59:15.518Z,100091.28
